March ARB Airport
KRIV : now visible

Airfield :











YOU CAN JOIN US ON...

 
LOGIN :

Register | Disclaimer

   EN    FR    IT 

 









Legend :    VFR   Marginal VFR   IFR   Intensive IFR   Very Intensive IFR
Visi :
Ceiling :
>= 8 km
>= 3000ft
5 to 8 km
1000 to 3000 ft
1500m to 5 km
500 to 1000 ft
800 to 1500m
200 to 500 ft
< 800m
< 200 ft
Symbols :   Thunderstorms  Fog  Heavy snow  Heavy precipitations  Wind > 20 kt






- Airport Elevation : 1536 ft


KRIV - March ARB

CURRENT METAR :
  • 030058Z AUTO 30009KT 10SM BKN047 18/09 A2991 RMK AO2 SLP124 T01820090

EXPIRED METARs :
  • 022358Z 32009KT 10SM BKN050 19/09 A2991 RMK AO2A SLP123 T01930089 10198 20150 57009

TAF TAF KRIV
Valid from the 02 at 20:00 until the 04 at 02:00 UTC


022001Z 0220/0402 30006KT 9999 BKN040 QNH2992INS
BECMG 0220/0221 30009KT 9999 BKN040 QNH2991INS
TEMPO 0221/0301 30012G18KT
BECMG 0302/0303 30006KT 9999 SCT025 QNH2994INS
BECMG 0308/0309 15006KT 8000 BR BKN010 QNH2993INS
BECMG 0315/0316 15006KT 9000 HZ BKN017 QNH2995INS
BECMG 0317/0318 15006KT 9999 NSW SCT017 QNH2992INS
BECMG 0320/0321 30009KT 9999 SCT035 QNH2986INS
TEMPO 0321/0401 30012G18KT TX19/0222Z TN09/0312Z



MET'MAP, your aeronautical weather chart ! - Copyright ORBIFLY December 2007 - Disclaimer

ORBIFLY MET'MAP TEAM :

Programming & Development : Alexandra Zaïnal
Concept & original design : Baudouin d'Aumeries
Assistance for programming : Marc-Olivier Méhu
Technical & hardware support : Manuel Goepfert

Contact : metmap@orbifly.com




SOURCES & CREDITS :

   NOAA       Earth
Advisory